Time;durP1;ratioP1;P1;durP2;ratioP2;P2;SDS_P1;SDS_P2;PMS_P1;PMS_P2;Temp;Humidity;BMP_temperature;BMP_pressure;BME280_temperature;BME280_humidity;BME280_pressure;Samples;Min_cycle;Max_cycle;Signal;HPM_P1;HPM_P2
2021/12/07 00:02:01;;;;;;;23.47;14.37;;;;;;;1.94;82.68;99673.27;1507369;86;22697;-87
2021/12/07 00:04:28;;;;;;;20.73;12.80;;;;;;;1.97;83.25;99679.56;1499594;86;22774;-86
2021/12/07 00:06:55;;;;;;;21.70;13.77;;;;;;;1.95;83.56;99680.14;1505505;86;22108;-86
2021/12/07 00:09:22;;;;;;;23.30;14.47;;;;;;;1.95;83.60;99678.35;1503005;86;22950;-86
2021/12/07 00:11:49;;;;;;;21.90;12.13;;;;;;;1.98;83.60;99678.61;1500454;86;21879;-87
2021/12/07 00:14:23;;;;;;;24.23;12.50;;;;;;;1.91;82.62;99683.92;1501981;86;21792;-87
2021/12/07 00:16:46;;;;;;;22.33;14.30;;;;;;;1.95;83.05;99682.27;1499534;85;21757;-87
2021/12/07 00:19:12;;;;;;;23.90;13.67;;;;;;;1.96;83.56;99685.73;1483355;86;23855;-86
2021/12/07 00:21:41;;;;;;;27.40;16.20;;;;;;;1.85;83.03;99679.15;1510068;86;21786;-87
2021/12/07 00:24:11;;;;;;;22.27;12.83;;;;;;;1.91;83.58;99679.53;1500912;86;22782;-87
2021/12/07 00:26:39;;;;;;;22.83;15.10;;;;;;;1.89;83.27;99676.67;1485200;87;21755;-86
2021/12/07 00:29:09;;;;;;;27.50;14.53;;;;;;;1.87;83.21;99675.49;1478880;88;22848;-87
2021/12/07 00:31:50;;;;;;;25.57;12.17;;;;;;;1.86;83.90;99664.67;1481983;86;21877;-87
2021/12/07 00:34:19;;;;;;;21.33;12.17;;;;;;;1.78;84.54;99656.11;1487828;87;21879;-87
2021/12/07 00:36:45;;;;;;;24.63;15.85;;;;;;;1.78;84.54;99656.11;1474227;88;22161;-87
2021/12/07 00:39:15;;;;;;;23.47;13.83;;;;;;;1.83;84.38;99661.45;1474715;88;22287;-87
2021/12/07 00:41:42;;;;;;;29.63;15.68;;;;;;;1.84;84.56;99665.72;1483596;88;21349;-86
2021/12/07 00:44:09;;;;;;;22.73;14.37;;;;;;;1.77;84.49;99668.77;1480166;88;22697;-86
2021/12/07 00:46:37;;;;;;;25.97;14.47;;;;;;;1.72;84.76;99653.91;1484569;88;22033;-87
2021/12/07 00:49:04;;;;;;;20.40;13.23;;;;;;;1.72;84.76;99653.91;1480472;86;21887;-90
2021/12/07 00:51:31;;;;;;;24.67;14.33;;;;;;;1.75;84.63;99651.56;1478945;88;21864;-89
2021/12/07 00:53:58;;;;;;;25.70;16.20;;;;;;;1.75;84.63;99651.56;1481142;86;21768;-89
2021/12/07 00:56:25;;;;;;;23.90;14.63;;;;;;;1.75;84.45;99651.08;1470472;88;23506;-89
2021/12/07 00:58:51;;;;;;;28.10;15.77;;;;;;;1.74;84.16;99649.91;1482418;88;21812;-89
2021/12/07 01:01:20;;;;;;;20.13;13.40;;;;;;;1.73;84.35;99643.86;1497041;86;21826;-89
2021/12/07 01:03:49;;;;;;;26.13;14.77;;;;;;;1.67;84.15;99643.00;1497819;87;21764;-87
2021/12/07 01:08:58;;;;;;;26.52;15.78;;;;;;;1.64;84.43;99648.89;1490815;87;21881;-87
2021/12/07 01:25:09;;;;;;;28.17;13.53;;;;;;;1.45;85.38;99629.34;1494512;87;22523;-88
2021/12/07 01:27:36;;;;;;;26.50;16.17;;;;;;;1.45;85.92;99632.43;1497466;87;22886;-87
2021/12/07 01:30:13;;;;;;;28.30;16.80;;;;;;;1.37;86.17;99618.63;1473017;87;21655;-88
2021/12/07 01:32:52;;;;;;;24.73;13.57;;;;;;;1.35;86.50;99624.41;1455817;88;21865;-88
2021/12/07 01:38:23;;;;;;;28.70;17.30;;;;;;;1.27;86.74;99618.45;1464838;88;21696;-88
2021/12/07 01:46:03;;;;;;;35.83;18.43;;;;;;;1.19;87.43;99628.58;1478672;88;22714;-87
2021/12/07 01:59:34;;;;;;;24.63;14.10;;;;;;;1.18;87.43;99638.66;1469828;89;21706;-88
2021/12/07 02:02:11;;;;;;;30.70;18.37;;;;;;;1.17;87.50;99642.18;1497155;86;21818;-87
2021/12/07 02:04:39;;;;;;;32.30;17.17;;;;;;;1.16;88.00;99640.52;1495380;87;21638;-87
2021/12/07 02:07:07;;;;;;;32.17;17.50;;;;;;;1.17;87.94;99636.14;1482204;88;21440;-87
2021/12/07 02:09:35;;;;;;;32.37;18.93;;;;;;;1.15;87.63;99638.84;1482943;88;22726;-87
2021/12/07 02:12:06;;;;;;;29.60;16.90;;;;;;;1.24;87.32;99637.39;1479893;88;21698;-87
2021/12/07 02:14:32;;;;;;;32.73;17.65;;;;;;;1.22;87.14;99633.58;1483311;87;21648;-88
2021/12/07 02:17:12;;;;;;;28.43;17.10;;;;;;;1.20;87.34;99639.36;1479652;88;21581;-87
2021/12/07 02:19:40;;;;;;;39.40;20.13;;;;;;;1.24;87.58;99634.78;1481089;88;22026;-88
2021/12/07 02:22:07;;;;;;;32.77;16.33;;;;;;;1.22;87.39;99622.32;1479416;88;21822;-88
2021/12/07 02:24:33;;;;;;;36.90;21.27;;;;;;;1.20;87.24;99622.89;1484438;87;21807;-87
2021/12/07 02:27:01;;;;;;;33.20;19.00;;;;;;;1.22;87.46;99620.54;1482847;87;23867;-90
2021/12/07 02:29:28;;;;;;;27.10;16.30;;;;;;;1.20;86.76;99613.29;1472316;88;21611;-89
2021/12/07 02:31:56;;;;;;;32.13;18.20;;;;;;;1.23;86.57;99619.59;1479857;87;21619;-89
2021/12/07 02:34:24;;;;;;;29.53;16.87;;;;;;;1.27;87.01;99608.50;1478337;88;21565;-87
2021/12/07 02:36:53;;;;;;;30.47;17.07;;;;;;;1.24;87.02;99604.33;1473167;88;21654;-87
2021/12/07 02:39:30;;;;;;;31.20;17.17;;;;;;;1.22;86.46;99600.99;1480521;88;21521;-87
2021/12/07 02:41:56;;;;;;;42.83;23.83;;;;;;;1.25;86.77;99604.68;1479641;87;22319;-88
2021/12/07 02:44:22;;;;;;;36.90;20.20;;;;;;;1.25;86.50;99595.56;1483411;88;21691;-88
2021/12/07 02:46:48;;;;;;;39.40;21.20;;;;;;;1.25;86.25;99599.47;1478101;87;21743;-88
2021/12/07 02:49:14;;;;;;;33.20;19.20;;;;;;;1.27;86.29;99594.16;1484873;88;21603;-88
2021/12/07 02:51:40;;;;;;;32.37;18.27;;;;;;;1.28;86.07;99584.91;1486731;88;23594;-87
2021/12/07 02:54:07;;;;;;;32.87;17.10;;;;;;;1.24;85.81;99575.66;1479073;88;21821;-88
2021/12/07 02:56:33;;;;;;;38.90;21.63;;;;;;;1.22;85.75;99571.02;1483553;88;21677;-88
2021/12/07 02:59:03;;;;;;;29.50;15.57;;;;;;;1.24;86.35;99572.22;1475142;87;21857;-89
2021/12/07 03:01:32;;;;;;;35.67;19.87;;;;;;;1.21;85.92;99579.78;1485238;88;21786;-90
2021/12/07 03:04:07;;;;;;;41.53;18.73;;;;;;;1.24;85.88;99580.88;1462889;89;21681;-89
2021/12/07 03:07:09;;;;;;;39.90;22.37;;;;;;;1.27;86.42;99590.25;1439244;90;23853;-89
2021/12/07 03:25:53;;;;;;;37.13;19.00;;;;;;;1.28;86.27;99586.69;1487681;87;22806;-90
2021/12/07 03:28:20;;;;;;;36.77;18.80;;;;;;;1.33;85.19;99604.98;1460171;89;22687;-88
2021/12/07 03:30:47;;;;;;;41.80;19.87;;;;;;;1.30;84.55;99618.23;1443022;90;21711;-89
2021/12/07 03:33:13;;;;;;;40.47;22.33;;;;;;;1.32;85.11;99615.05;1458956;89;21878;-89
2021/12/07 03:35:39;;;;;;;38.03;19.87;;;;;;;1.37;85.38;99617.32;1464139;89;21766;-87
2021/12/07 03:38:08;;;;;;;37.90;19.97;;;;;;;1.33;85.30;99604.98;1439143;90;21716;-87
2021/12/07 03:40:36;;;;;;;37.93;19.27;;;;;;;1.33;85.43;99595.85;1459375;89;21713;-88
2021/12/07 03:43:03;;;;;;;40.77;21.67;;;;;;;1.34;85.73;99597.98;1450194;89;22560;-87
2021/12/07 03:45:31;;;;;;;40.20;20.57;;;;;;;1.34;85.09;99594.90;1437373;90;21691;-89
2021/12/07 03:48:00;;;;;;;38.80;20.13;;;;;;;1.31;84.73;99591.20;1457242;89;21702;-87
2021/12/07 03:50:27;;;;;;;38.20;18.60;;;;;;;1.30;84.93;99590.86;1461857;89;21608;-88
2021/12/07 03:52:53;;;;;;;36.73;19.20;;;;;;;1.30;84.73;99588.25;1442473;90;22153;-87
2021/12/07 03:55:20;;;;;;;41.70;19.73;;;;;;;1.30;85.31;99578.30;1458618;89;21657;-89
2021/12/07 03:57:48;;;;;;;38.03;20.03;;;;;;;1.30;85.04;99580.91;1470850;88;22597;-88
2021/12/07 04:00:19;;;;;;;36.37;20.00;;;;;;;1.32;85.11;99584.22;1462726;88;21617;-88
2021/12/07 04:02:49;;;;;;;40.77;21.07;;;;;;;1.28;85.30;99583.61;1463629;88;21745;-88
2021/12/07 04:05:18;;;;;;;36.27;20.73;;;;;;;1.32;84.92;99588.98;1475760;88;21706;-88
2021/12/07 04:07:46;;;;;;;42.70;23.10;;;;;;;1.31;84.78;99596.42;1472470;88;21605;-90
2021/12/07 04:10:15;;;;;;;44.03;22.97;;;;;;;1.32;84.80;99589.43;1470382;88;21720;-89
2021/12/07 04:12:41;;;;;;;38.30;20.10;;;;;;;1.31;84.58;99582.08;1474343;88;22494;-90
2021/12/07 04:15:12;;;;;;;40.03;21.13;;;;;;;1.31;84.84;99580.78;1458183;88;21689;-90
2021/12/07 04:17:39;;;;;;;38.85;22.52;;;;;;;1.30;84.30;99588.25;1475375;88;22692;-91
2021/12/07 04:20:09;;;;;;;39.50;19.23;;;;;;;1.30;84.60;99588.25;1472256;88;21449;-91
2021/12/07 04:22:35;;;;;;;47.57;23.33;;;;;;;1.33;84.74;99590.64;1467710;88;21724;-90
2021/12/07 04:25:06;;;;;;;43.10;22.97;;;;;;;1.39;84.74;99602.41;1466501;88;21681;-90
2021/12/07 04:27:37;;;;;;;40.12;20.85;;;;;;;1.38;84.19;99603.33;1478587;88;21760;-90
2021/12/07 04:30:05;;;;;;;38.83;19.63;;;;;;;1.38;84.32;99610.33;1467488;88;22469;-91
2021/12/07 04:32:32;;;;;;;31.30;15.00;;;;;;;1.36;83.86;99603.93;1471947;88;21761;-91
2021/12/07 04:34:59;;;;;;;35.40;17.33;;;;;;;1.32;83.66;99602.02;1470004;88;21522;-91
2021/12/07 04:37:25;;;;;;;41.13;22.07;;;;;;;1.29;83.75;99598.30;1473567;88;21595;-88
2021/12/07 04:39:51;;;;;;;42.03;21.87;;;;;;;1.35;83.70;99592.67;1475338;88;21627;-88
2021/12/07 04:42:17;;;;;;;31.63;15.10;;;;;;;1.34;83.36;99597.51;1472575;88;21523;-89
2021/12/07 04:44:51;;;;;;;38.13;19.97;;;;;;;1.31;83.12;99594.30;1478802;88;21382;-88
2021/12/07 04:47:20;;;;;;;30.83;17.63;;;;;;;1.32;83.28;99595.95;1469765;88;21674;-90
2021/12/07 04:57:55;;;;;;;33.53;18.73;;;;;;;1.39;83.53;99604.19;1473889;88;22709;-87
2021/12/07 05:00:26;;;;;;;35.43;16.07;;;;;;;1.40;83.42;99611.05;1458047;88;21842;-88
2021/12/07 05:02:58;;;;;;;31.90;16.90;;;;;;;1.34;83.19;99610.55;1477185;88;21618;-87
2021/12/07 05:05:27;;;;;;;38.87;21.63;;;;;;;1.32;82.91;99608.54;1473409;88;21683;-88
2021/12/07 05:07:54;;;;;;;34.80;18.70;;;;;;;1.37;83.16;99613.41;1472051;88;21574;-88
2021/12/07 05:15:55;;;;;;;34.90;16.90;;;;;;;1.31;83.15;99600.81;1477455;88;22558;-91
2021/12/07 05:18:08;;;;;;;32.10;18.00;;;;;;;1.32;82.64;99599.41;1470793;88;22322;-91
2021/12/07 05:39:31;;;;;;;29.27;15.03;;;;;;;1.24;81.69;99606.94;1458937;88;21657;-91
2021/12/07 05:41:58;;;;;;;32.10;18.07;;;;;;;1.22;81.93;99608.81;1467608;88;21662;-92
2021/12/07 05:44:24;;;;;;;29.87;17.30;;;;;;;1.21;82.02;99609.77;1472386;88;21602;-92
2021/12/07 05:46:51;;;;;;;31.13;18.23;;;;;;;1.26;81.94;99612.03;1471274;88;22136;-91
2021/12/07 05:49:17;;;;;;;34.23;18.50;;;;;;;1.25;81.81;99603.38;1475508;88;22636;-88
2021/12/07 05:51:43;;;;;;;32.30;16.83;;;;;;;1.29;82.04;99607.42;1472203;88;21739;-89
2021/12/07 05:54:12;;;;;;;25.77;14.10;;;;;;;1.29;82.00;99602.20;1471913;88;22541;-90
2021/12/07 05:56:39;;;;;;;27.17;15.57;;;;;;;1.25;81.44;99598.64;1470303;88;21552;-90
2021/12/07 05:59:05;;;;;;;28.60;16.23;;;;;;;1.25;81.38;99603.86;1467204;87;22854;-92
2021/12/07 06:01:32;;;;;;;26.43;14.73;;;;;;;1.20;81.36;99598.13;1473171;88;21641;-88
2021/12/07 06:03:59;;;;;;;25.97;14.77;;;;;;;1.15;81.53;99604.95;1473477;88;22594;-91
2021/12/07 06:06:25;;;;;;;27.13;16.27;;;;;;;1.15;81.65;99601.05;1469238;88;21680;-89
2021/12/07 06:08:51;;;;;;;24.53;14.33;;;;;;;1.15;81.90;99600.22;1481396;88;22535;-89
2021/12/07 06:11:21;;;;;;;25.60;15.60;;;;;;;1.11;81.39;99603.04;1474563;88;21681;-89
2021/12/07 06:13:46;;;;;;;34.57;20.70;;;;;;;1.14;81.77;99608.52;1469819;87;22085;-89
2021/12/07 06:16:15;;;;;;;34.27;19.97;;;;;;;1.13;81.57;99601.64;1473570;88;21737;-91
2021/12/07 06:18:40;;;;;;;30.17;15.90;;;;;;;1.10;81.77;99596.17;1470047;88;22434;-88
2021/12/07 06:21:06;;;;;;;28.67;18.27;;;;;;;1.06;81.47;99595.18;1471412;88;21588;-90
2021/12/07 06:23:33;;;;;;;34.23;18.33;;;;;;;1.10;81.95;99595.34;1473328;88;21605;-88
2021/12/07 06:25:59;;;;;;;24.70;13.60;;;;;;;1.10;81.44;99594.88;1468107;88;22484;-88
2021/12/07 06:28:26;;;;;;;28.90;16.57;;;;;;;1.05;81.36;99601.34;1450400;88;21682;-90
2021/12/07 06:30:52;;;;;;;26.00;14.40;;;;;;;1.08;81.51;99590.70;1474420;88;21702;-90
2021/12/07 06:33:21;;;;;;;30.53;18.80;;;;;;;1.02;80.55;99593.74;1477587;88;21563;-89
2021/12/07 06:35:49;;;;;;;29.80;18.77;;;;;;;1.06;81.33;99587.36;1475186;88;21629;-90
2021/12/07 06:38:18;;;;;;;21.40;13.03;;;;;;;1.06;81.31;99588.66;1476238;88;22507;-90
2021/12/07 06:40:45;;;;;;;24.20;15.00;;;;;;;1.00;80.89;99590.41;1459215;88;21591;-89
2021/12/07 06:43:12;;;;;;;28.37;17.07;;;;;;;0.98;80.67;99580.55;1457415;88;23131;-89
2021/12/07 06:45:38;;;;;;;18.80;10.90;;;;;;;0.94;80.99;99581.23;1470355;88;21684;-90
2021/12/07 06:48:04;;;;;;;25.33;16.57;;;;;;;0.89;80.65;99580.27;1471588;88;21780;-90
2021/12/07 06:50:30;;;;;;;25.10;15.30;;;;;;;0.93;81.02;99576.98;1467296;88;21633;-89
2021/12/07 06:52:56;;;;;;;27.33;15.70;;;;;;;0.86;80.94;99579.19;1468661;88;23644;-87
2021/12/07 06:55:22;;;;;;;31.87;17.73;;;;;;;0.84;81.02;99582.36;1441325;88;22669;-87
2021/12/07 06:57:49;;;;;;;26.33;16.20;;;;;;;0.83;82.50;99582.45;1414416;92;21732;-87
2021/12/07 07:00:17;;;;;;;23.03;13.57;;;;;;;0.83;82.12;99585.05;1432304;91;21597;-87
2021/12/07 07:02:43;;;;;;;31.27;16.50;;;;;;;0.82;82.35;99590.73;1422846;92;22559;-87
2021/12/07 07:05:10;;;;;;;26.23;14.10;;;;;;;0.83;82.32;99592.39;1416714;92;21722;-86
2021/12/07 07:07:38;;;;;;;30.33;17.23;;;;;;;0.75;81.72;99598.63;1416794;91;21636;-87
2021/12/07 07:10:07;;;;;;;24.43;14.10;;;;;;;0.87;82.24;99591.27;1417035;91;21768;-86
2021/12/07 07:12:35;;;;;;;25.93;14.77;;;;;;;0.86;81.71;99582.23;1431612;91;22812;-88
2021/12/07 07:15:05;;;;;;;27.67;16.07;;;;;;;0.87;81.80;99593.87;1416248;92;21710;-86
2021/12/07 07:17:31;;;;;;;25.87;15.87;;;;;;;0.82;81.47;99595.95;1429341;91;21651;-87
2021/12/07 07:19:57;;;;;;;23.47;14.03;;;;;;;0.89;82.01;99597.66;1408615;92;21600;-87
2021/12/07 07:22:23;;;;;;;29.53;16.20;;;;;;;0.86;81.23;99605.23;1410002;91;22202;-86
2021/12/07 07:24:49;;;;;;;44.20;24.60;;;;;;;0.89;81.09;99597.66;1417955;92;21701;-86
2021/12/07 07:27:15;;;;;;;23.83;14.57;;;;;;;0.93;81.72;99610.02;1405449;92;21705;-86
2021/12/07 07:29:42;;;;;;;27.27;16.67;;;;;;;0.95;81.14;99609.42;1416755;92;21751;-86
2021/12/07 07:32:08;;;;;;;28.43;17.73;;;;;;;1.00;80.98;99616.45;1412602;92;21790;-87
2021/12/07 07:34:34;;;;;;;20.47;12.10;;;;;;;1.02;81.20;99617.20;1411631;92;21688;-86
2021/12/07 07:37:01;;;;;;;30.03;18.07;;;;;;;1.08;80.97;99619.37;1417961;92;21580;-86
2021/12/07 07:39:27;;;;;;;35.67;20.30;;;;;;;1.12;80.81;99619.06;1419483;91;22821;-88
2021/12/07 07:41:53;;;;;;;25.17;16.10;;;;;;;1.27;81.11;99614.55;1412404;92;21978;-86
2021/12/07 07:44:20;;;;;;;24.13;15.03;;;;;;;1.33;80.79;99610.67;1411640;91;22728;-85
2021/12/07 07:46:46;;;;;;;27.10;15.87;;;;;;;1.31;79.98;99603.42;1411777;91;21749;-85
2021/12/07 07:49:12;;;;;;;23.77;14.47;;;;;;;1.37;80.62;99607.37;1416490;92;21732;-86
2021/12/07 07:51:39;;;;;;;23.77;14.63;;;;;;;1.40;79.78;99605.84;1416227;92;21700;-85
2021/12/07 07:54:06;;;;;;;29.90;17.13;;;;;;;1.48;80.67;99616.56;1418130;92;21788;-85
2021/12/07 07:56:33;;;;;;;21.27;12.47;;;;;;;1.47;80.01;99614.44;1439091;89;21760;-86
2021/12/07 07:59:00;;;;;;;24.37;15.27;;;;;;;1.42;78.70;99614.40;1442124;90;21957;-86
2021/12/07 08:01:31;;;;;;;23.47;14.33;;;;;;;1.50;79.07;99612.91;1445047;90;21696;-84
2021/12/07 08:04:02;;;;;;;21.23;13.60;;;;;;;1.48;78.72;99616.56;1442561;90;21996;-85
2021/12/07 08:06:29;;;;;;;24.47;15.05;;;;;;;1.48;78.72;99616.56;1453046;90;21982;-85
2021/12/07 08:08:57;;;;;;;20.40;12.27;;;;;;;1.46;79.33;99610.61;1448996;90;21500;-84
2021/12/07 08:11:24;;;;;;;24.33;13.93;;;;;;;1.46;78.76;99610.14;1448083;90;21843;-85
2021/12/07 08:13:51;;;;;;;20.07;13.27;;;;;;;1.48;78.98;99616.09;1450520;90;21950;-87
2021/12/07 08:16:17;;;;;;;17.70;11.23;;;;;;;1.53;78.34;99613.16;1442658;90;21751;-86
2021/12/07 08:18:46;;;;;;;21.20;13.10;;;;;;;1.50;78.37;99614.21;1447923;90;21669;-87
2021/12/07 08:21:15;;;;;;;19.77;12.43;;;;;;;1.45;78.27;99608.96;1438366;90;21793;-87
2021/12/07 08:23:42;;;;;;;18.73;11.53;;;;;;;1.45;78.27;99608.96;1447373;90;21652;-86
2021/12/07 08:26:12;;;;;;;20.07;11.53;;;;;;;1.45;78.07;99614.17;1437301;90;21705;-86
2021/12/07 08:28:38;;;;;;;25.30;13.23;;;;;;;1.45;78.00;99614.17;1440712;90;21711;-84
2021/12/07 08:31:05;;;;;;;18.10;11.20;;;;;;;1.54;78.65;99616.12;1443182;90;21877;-84
2021/12/07 08:33:33;;;;;;;20.80;12.60;;;;;;;1.54;77.99;99620.86;1445130;90;21880;-84
2021/12/07 08:36:01;;;;;;;18.67;9.57;;;;;;;1.64;77.89;99617.59;1443274;90;21835;-84
2021/12/07 08:38:51;;;;;;;22.77;13.43;;;;;;;1.60;77.08;99614.84;1448799;90;21894;-84
2021/12/07 08:41:17;;;;;;;16.77;10.17;;;;;;;1.66;77.30;99613.92;1434777;91;21385;-84
2021/12/07 08:43:46;;;;;;;16.93;11.23;;;;;;;1.76;77.01;99617.55;1458953;89;21786;-84
2021/12/07 08:46:15;;;;;;;15.27;9.83;;;;;;;1.76;77.01;99617.55;1459944;89;21842;-85
2021/12/07 08:48:42;;;;;;;16.27;10.77;;;;;;;1.79;75.95;99607.37;1458623;89;21828;-86
2021/12/07 08:51:12;;;;;;;16.27;9.77;;;;;;;1.91;76.87;99618.69;1464043;88;21829;-83
2021/12/07 08:53:55;;;;;;;16.57;9.37;;;;;;;2.07;76.05;99612.67;1464429;89;21843;-84
2021/12/07 09:01:44;;;;;;;14.97;9.13;;;;;;;2.08;74.27;99586.95;1461036;89;22146;-87
2021/12/07 09:04:13;;;;;;;18.03;10.03;;;;;;;2.08;74.27;99586.95;1467368;89;22086;-88
2021/12/07 09:06:38;;;;;;;15.30;9.40;;;;;;;2.14;74.23;99599.55;1464985;89;22229;-88
2021/12/07 09:09:05;;;;;;;15.93;9.57;;;;;;;2.09;73.83;99586.47;1461240;89;22988;-84
2021/12/07 09:11:31;;;;;;;13.00;9.17;;;;;;;2.14;73.44;99590.41;1465101;89;21456;-85
2021/12/07 09:13:58;;;;;;;13.97;8.20;;;;;;;2.14;73.44;99590.41;1454725;89;21944;-86
2021/12/07 09:16:24;;;;;;;15.67;10.33;;;;;;;2.23;74.81;99594.94;1458230;89;22107;-85
2021/12/07 09:18:50;;;;;;;20.27;9.30;;;;;;;2.22;74.33;99586.76;1457194;89;22138;-85
2021/12/07 09:21:19;;;;;;;18.03;10.87;;;;;;;2.37;74.76;99592.60;1450791;88;22183;-86
2021/12/07 09:23:46;;;;;;;30.03;10.17;;;;;;;2.55;74.60;99586.45;1445275;89;22177;-85
2021/12/07 09:26:14;;;;;;;14.93;9.30;;;;;;;2.55;74.60;99586.45;1463332;89;22158;-85
2021/12/07 09:28:44;;;;;;;15.57;8.70;;;;;;;2.47;73.10;99582.66;1463809;89;22038;-86
2021/12/07 09:31:11;;;;;;;19.00;10.57;;;;;;;2.48;73.42;99582.66;1460365;88;23124;-85
2021/12/07 09:33:41;;;;;;;16.03;7.20;;;;;;;2.56;73.46;99580.75;1465717;89;22106;-85
2021/12/07 09:36:10;;;;;;;16.07;9.80;;;;;;;2.46;72.12;99587.16;1456107;89;23331;-85
2021/12/07 09:38:38;;;;;;;17.90;9.53;;;;;;;2.39;72.88;99576.35;1460141;89;22282;-86
2021/12/07 09:41:07;;;;;;;12.90;8.47;;;;;;;2.49;73.27;99584.31;1463212;89;22370;-87
2021/12/07 09:43:39;;;;;;;14.13;10.47;;;;;;;2.52;72.70;99577.55;1456126;89;22215;-86
2021/12/07 09:46:08;;;;;;;17.00;9.70;;;;;;;2.44;72.36;99575.98;1455514;89;22274;-86
2021/12/07 09:48:42;;;;;;;14.27;9.00;;;;;;;2.46;73.01;99580.63;1446578;89;22330;-89
2021/12/07 09:51:11;;;;;;;18.70;9.13;;;;;;;2.42;71.87;99568.77;1476427;89;22165;-89
2021/12/07 09:53:37;;;;;;;11.77;7.33;;;;;;;2.41;72.67;99567.08;1458972;89;22487;-87
2021/12/07 09:56:07;;;;;;;12.80;7.83;;;;;;;2.51;73.01;99573.76;1452061;89;22070;-87
2021/12/07 09:58:34;;;;;;;14.93;8.47;;;;;;;2.51;72.96;99558.91;1481555;89;22250;-87
2021/12/07 10:01:01;;;;;;;12.20;7.67;;;;;;;2.61;72.28;99564.25;1476266;89;22052;-86
2021/12/07 10:03:27;;;;;;;17.10;9.83;;;;;;;2.74;72.43;99558.93;1447928;89;22237;-86
2021/12/07 10:05:54;;;;;;;18.93;11.80;;;;;;;2.81;71.96;99556.18;1429070;89;22965;-86
2021/12/07 10:08:24;;;;;;;13.30;8.47;;;;;;;2.85;71.66;99554.98;1442749;90;22519;-87
2021/12/07 10:10:57;;;;;;;14.45;8.90;;;;;;;2.91;72.45;99545.38;1432245;90;22987;-84
2021/12/07 10:13:30;;;;;;;13.70;8.13;;;;;;;2.93;72.47;99542.15;1432197;91;21472;-84
2021/12/07 10:16:00;;;;;;;13.93;9.20;;;;;;;2.99;71.28;99542.14;1444612;90;22189;-84
2021/12/07 10:18:31;;;;;;;13.50;8.47;;;;;;;3.05;70.92;99532.51;1418661;90;22120;-84
2021/12/07 10:21:03;;;;;;;12.28;8.15;;;;;;;3.05;70.92;99532.51;1404976;93;21533;-86
2021/12/07 10:23:43;;;;;;;12.10;7.57;;;;;;;2.98;70.94;99529.55;1401912;93;21434;-86
2021/12/07 10:26:15;;;;;;;13.87;9.13;;;;;;;3.04;71.54;99538.22;1415977;89;22063;-85
2021/12/07 10:28:54;;;;;;;15.23;9.63;;;;;;;3.16;70.75;99525.50;1433821;91;21404;-86
2021/12/07 10:31:32;;;;;;;11.83;7.43;;;;;;;3.16;70.75;99525.50;1432708;89;21665;-86
2021/12/07 10:34:06;;;;;;;14.10;7.53;;;;;;;3.06;69.73;99544.16;1421217;92;22222;-85
2021/12/07 10:36:37;;;;;;;14.60;8.40;;;;;;;3.08;70.72;99534.42;1409544;92;23148;-86
2021/12/07 10:39:12;;;;;;;15.35;9.63;;;;;;;3.06;70.85;99528.48;1440755;90;23268;-86
2021/12/07 10:41:46;;;;;;;15.70;9.67;;;;;;;3.15;71.80;99519.90;1470504;88;21500;-87
2021/12/07 10:44:28;;;;;;;14.03;7.80;;;;;;;3.21;71.93;99511.22;1456028;88;22384;-87
2021/12/07 10:47:02;;;;;;;18.17;11.47;;;;;;;3.25;71.55;99508.69;1442626;90;21396;-85
2021/12/07 10:49:46;;;;;;;14.63;9.33;;;;;;;3.38;71.82;99508.89;1452953;89;22153;-87
2021/12/07 10:52:40;;;;;;;16.93;10.87;;;;;;;3.38;71.82;99508.89;1454665;89;22493;-85
2021/12/07 10:55:23;;;;;;;14.27;8.43;;;;;;;3.41;71.52;99514.36;1432597;91;22127;-85
2021/12/07 10:58:00;;;;;;;15.33;9.37;;;;;;;3.40;70.98;99506.17;1455217;88;22241;-86
2021/12/07 11:00:36;;;;;;;12.70;7.33;;;;;;;3.40;70.98;99506.17;1452094;89;21508;-84
2021/12/07 11:03:10;;;;;;;15.03;9.37;;;;;;;3.31;70.68;99491.20;1456219;89;21634;-84
2021/12/07 11:05:41;;;;;;;13.73;7.83;;;;;;;3.40;70.39;99500.94;1455432;89;23316;-85
2021/12/07 11:08:14;;;;;;;;;;;;;;;3.34;70.88;99494.91;1458766;89;21383;-85
2021/12/07 11:10:47;;;;;;;17.03;10.93;;;;;;;3.42;70.64;99506.03;1430346;91;20332;-85
2021/12/07 11:13:23;;;;;;;15.10;8.13;;;;;;;3.48;70.99;99510.31;1437194;91;23268;-85
2021/12/07 11:16:02;;;;;;;15.50;9.87;;;;;;;3.37;70.47;99501.19;1437999;90;21448;-85
2021/12/07 11:18:35;;;;;;;14.73;9.00;;;;;;;3.57;70.48;99513.48;1453654;89;22738;-85
2021/12/07 11:21:08;;;;;;;18.33;9.50;;;;;;;3.56;70.45;99503.95;1452192;89;21362;-85
2021/12/07 11:23:47;;;;;;;16.90;10.30;;;;;;;3.42;69.34;99512.09;1459394;88;21471;-85
2021/12/07 11:31:52;;;;;;;14.70;8.90;;;;;;;3.63;70.41;99504.78;1469143;87;23329;-85
2021/12/07 11:34:23;;;;;;;16.93;10.17;;;;;;;3.59;68.90;99506.31;1452880;87;21433;-85
2021/12/07 11:36:54;;;;;;;13.90;7.85;;;;;;;3.64;69.99;99510.36;1454648;88;21588;-85
2021/12/07 11:39:35;;;;;;;12.30;6.87;;;;;;;3.51;69.19;99507.44;1445368;90;21492;-86
2021/12/07 11:42:15;;;;;;;14.27;8.77;;;;;;;3.60;69.96;99507.17;1445491;90;21586;-85
2021/12/07 11:44:55;;;;;;;13.63;8.27;;;;;;;3.56;70.00;99506.56;1443437;90;21471;-85
2021/12/07 11:47:35;;;;;;;12.28;7.78;;;;;;;3.49;70.15;99508.03;1440946;90;21323;-86
2021/12/07 11:50:22;;;;;;;14.20;9.27;;;;;;;3.51;69.39;99506.13;1443865;90;21464;-85
2021/12/07 11:52:57;;;;;;;13.67;9.23;;;;;;;3.58;70.15;99498.61;1440889;90;21463;-86
2021/12/07 11:55:24;;;;;;;13.77;7.10;;;;;;;3.57;70.00;99499.09;1439044;90;21515;-85
2021/12/07 11:57:51;;;;;;;17.13;10.27;;;;;;;3.54;69.93;99500.65;1445263;90;21397;-86
2021/12/07 12:00:29;;;;;;;14.40;8.57;;;;;;;3.60;69.96;99501.94;1444655;90;21493;-86
2021/12/07 12:02:55;;;;;;;14.83;8.63;;;;;;;3.51;69.94;99498.28;1436443;90;21397;-86
2021/12/07 12:05:24;;;;;;;17.73;11.23;;;;;;;3.49;69.53;99494.12;1438638;90;21441;-85
2021/12/07 12:08:01;;;;;;;12.77;7.30;;;;;;;3.59;70.48;99497.64;1449406;87;21375;-86
2021/12/07 12:10:30;;;;;;;15.93;10.77;;;;;;;3.52;69.90;99493.39;1467317;87;21473;-84
2021/12/07 12:13:27;;;;;;;18.13;10.87;;;;;;;3.60;70.63;99490.98;1466798;87;21393;-85
2021/12/07 12:16:21;;;;;;;17.20;11.97;;;;;;;3.63;70.32;99502.16;1462175;87;21382;-87
2021/12/07 12:19:42;;;;;;;14.80;10.17;;;;;;;3.73;70.51;99500.44;1437406;87;22426;-86
2021/12/07 12:22:39;;;;;;;17.25;10.15;;;;;;;3.67;69.74;99488.69;1465821;89;21579;-87
2021/12/07 12:25:13;;;;;;;14.60;8.90;;;;;;;3.87;69.75;99490.14;1464029;87;21434;-87
2021/12/07 12:27:41;;;;;;;15.20;8.67;;;;;;;3.82;68.67;99487.89;1548114;89;21251;-87
2021/12/07 12:30:35;;;;;;;14.33;8.80;;;;;;;3.81;68.42;99482.31;1477986;88;21569;-87
2021/12/07 12:33:08;;;;;;;32.17;10.00;;;;;;;3.59;68.24;99488.00;1462378;89;22569;-87
2021/12/07 12:35:42;;;;;;;13.70;8.03;;;;;;;3.45;69.49;99489.59;1463037;89;21374;-87
2021/12/07 12:38:33;;;;;;;16.07;9.80;;;;;;;3.43;70.17;99488.09;1444738;89;21441;-87
2021/12/07 12:41:12;;;;;;;15.90;9.77;;;;;;;3.43;70.62;99490.22;1464806;88;21404;-86
2021/12/07 12:43:47;;;;;;;15.80;9.20;;;;;;;3.29;70.39;99491.82;1463217;88;21545;-87
2021/12/07 12:46:18;;;;;;;14.07;8.33;;;;;;;3.10;70.93;99481.52;1480694;88;21455;-85
2021/12/07 12:48:50;;;;;;;;;;;;;;;3.10;70.93;99481.52;1483749;88;21596;-84
2021/12/07 12:51:26;;;;;;;18.83;11.50;;;;;;;3.10;71.45;99498.99;1479651;88;20331;-84
2021/12/07 12:53:54;;;;;;;13.83;9.00;;;;;;;3.01;71.46;99507.09;1458235;87;22199;-84
2021/12/07 12:56:25;;;;;;;15.53;9.73;;;;;;;3.03;71.28;99508.29;1473603;87;22632;-84
2021/12/07 12:59:03;;;;;;;11.85;7.75;;;;;;;2.93;71.79;99501.19;1468658;87;22152;-85
2021/12/07 13:01:42;;;;;;;14.10;8.57;;;;;;;2.95;71.67;99501.05;1463066;88;23404;-84
2021/12/07 13:04:22;;;;;;;14.43;8.43;;;;;;;2.85;71.79;99514.02;1481113;88;22061;-85
2021/12/07 13:09:40;;;;;;;16.70;9.80;;;;;;;2.86;71.74;99507.01;1473003;87;23028;-85
2021/12/07 13:12:21;;;;;;;17.53;11.10;;;;;;;2.74;71.59;99507.98;1474184;87;23050;-86
2021/12/07 13:14:59;;;;;;;13.80;8.08;;;;;;;2.72;72.23;99512.00;1468872;87;23150;-85
2021/12/07 13:17:48;;;;;;;11.67;7.37;;;;;;;2.68;72.29;99514.52;1469452;87;21546;-86
2021/12/07 13:20:32;;;;;;;18.10;10.03;;;;;;;2.64;72.74;99521.73;1471100;87;22232;-87
2021/12/07 13:23:09;;;;;;;17.27;8.87;;;;;;;2.66;72.40;99519.02;1475482;87;22232;-87